createdAt,value
2017-11-08T00:00:39.615Z,29.60
2017-11-08T00:03:10.331Z,29.00
2017-11-08T00:05:39.585Z,29.10
2017-11-08T00:08:08.798Z,29.50
2017-11-08T00:10:38.093Z,29.10
2017-11-08T00:13:07.550Z,29.40
2017-11-08T00:15:36.619Z,29.20
2017-11-08T00:18:06.023Z,29.60
2017-11-08T00:20:36.186Z,29.40
2017-11-08T00:23:21.002Z,29.80
2017-11-08T00:25:50.416Z,29.70
2017-11-08T00:28:19.884Z,29.70
2017-11-08T00:30:49.396Z,29.70
2017-11-08T00:33:19.342Z,30.00
2017-11-08T00:35:49.594Z,30.10
2017-11-08T00:38:19.371Z,30.00
2017-11-08T00:40:48.847Z,30.40
2017-11-08T00:43:18.399Z,29.80
2017-11-08T00:45:48.535Z,29.70
2017-11-08T00:48:17.670Z,29.70
2017-11-08T00:50:47.795Z,29.70
2017-11-08T00:53:18.751Z,29.70
2017-11-08T00:55:47.852Z,30.00
2017-11-08T00:58:17.300Z,29.90
2017-11-08T01:00:49.486Z,29.60
2017-11-08T01:03:19.715Z,29.60
2017-11-08T01:05:49.706Z,29.90
2017-11-08T01:08:18.586Z,29.80
2017-11-08T01:10:48.008Z,30.00
2017-11-08T01:13:17.302Z,29.80
2017-11-08T01:15:48.675Z,30.40
2017-11-08T01:18:17.888Z,29.70
2017-11-08T01:20:47.145Z,30.10
2017-11-08T01:23:17.191Z,30.00
2017-11-08T01:25:46.654Z,30.00
2017-11-08T01:28:15.995Z,30.00
2017-11-08T01:30:46.542Z,30.00
2017-11-08T01:33:16.041Z,29.80
2017-11-08T01:35:45.532Z,30.00
2017-11-08T01:38:15.651Z,30.10
2017-11-08T01:40:48.432Z,29.70
2017-11-08T01:43:18.857Z,29.90
2017-11-08T01:45:48.362Z,29.50
2017-11-08T01:48:17.810Z,29.60
2017-11-08T01:50:51.130Z,29.70
2017-11-08T01:53:21.115Z,29.40
2017-11-08T01:55:51.496Z,29.00
2017-11-08T01:58:21.831Z,29.30
2017-11-08T02:00:51.949Z,28.90
2017-11-08T02:03:21.956Z,28.90
2017-11-08T02:05:50.699Z,29.00
2017-11-08T02:08:20.170Z,28.60
2017-11-08T02:10:49.235Z,28.90
2017-11-08T02:13:19.606Z,28.90
2017-11-08T02:15:52.739Z,28.40
2017-11-08T02:18:22.997Z,28.20
2017-11-08T02:20:54.891Z,28.20
2017-11-08T02:23:33.692Z,28.20
2017-11-08T02:26:11.260Z,28.30
2017-11-08T02:28:41.206Z,28.10
2017-11-08T02:31:10.486Z,28.10
2017-11-08T02:33:40.724Z,28.00
2017-11-08T02:36:10.171Z,28.30
2017-11-08T02:38:39.341Z,28.90
2017-11-08T02:41:09.721Z,28.10
2017-11-08T02:43:38.879Z,27.90
2017-11-08T02:46:08.889Z,28.20
2017-11-08T02:48:38.277Z,28.30
2017-11-08T02:51:08.882Z,28.50
2017-11-08T02:53:40.799Z,28.40
2017-11-08T02:56:11.721Z,28.20
2017-11-08T02:58:42.343Z,28.20
2017-11-08T03:01:12.222Z,28.30
2017-11-08T03:03:46.362Z,28.50
2017-11-08T03:06:15.789Z,28.30
2017-11-08T03:08:45.780Z,28.30
2017-11-08T03:11:15.996Z,28.40
2017-11-08T03:13:45.429Z,28.70
2017-11-08T03:16:14.199Z,28.70
2017-11-08T03:18:43.809Z,28.90
2017-11-08T03:21:13.001Z,28.50
2017-11-08T03:23:43.232Z,28.70
2017-11-08T03:26:12.573Z,28.60
2017-11-08T03:28:41.929Z,28.40
2017-11-08T03:31:11.699Z,28.90
2017-11-08T03:33:41.796Z,29.10
2017-11-08T03:36:10.800Z,29.10
2017-11-08T03:38:46.596Z,28.60
2017-11-08T03:41:16.311Z,28.60
2017-11-08T03:43:45.574Z,28.60
2017-11-08T03:46:15.540Z,28.80
2017-11-08T03:48:44.762Z,28.80
2017-11-08T03:51:13.838Z,28.80
2017-11-08T03:53:43.952Z,29.20
2017-11-08T03:56:12.718Z,28.80
2017-11-08T03:58:42.831Z,28.90
2017-11-08T04:01:13.615Z,28.80
2017-11-08T04:03:42.999Z,28.70
2017-11-08T04:06:12.451Z,28.40
2017-11-08T04:08:41.910Z,28.80
2017-11-08T04:11:11.140Z,29.20
2017-11-08T04:13:40.372Z,29.00
2017-11-08T04:16:10.383Z,29.40
2017-11-08T04:18:40.292Z,29.10
2017-11-08T04:21:09.815Z,29.30
2017-11-08T04:23:38.724Z,29.40
2017-11-08T04:26:09.145Z,29.50
2017-11-08T04:28:39.036Z,29.50
2017-11-08T04:31:09.686Z,29.50
2017-11-08T04:33:40.323Z,29.90
2017-11-08T04:36:09.711Z,29.90
2017-11-08T04:38:40.240Z,30.00
2017-11-08T04:41:10.700Z,29.40
2017-11-08T04:43:40.539Z,29.30
2017-11-08T04:46:10.361Z,29.10
2017-11-08T04:48:39.045Z,29.40
2017-11-08T04:51:08.814Z,29.60
2017-11-08T04:53:38.515Z,29.60
2017-11-08T04:56:08.229Z,29.70
2017-11-08T04:58:38.516Z,29.80
2017-11-08T05:01:07.871Z,29.90
2017-11-08T05:03:37.096Z,29.50
2017-11-08T05:06:06.542Z,29.10
2017-11-08T05:08:36.809Z,29.50
2017-11-08T05:11:06.085Z,29.30
2017-11-08T05:13:35.508Z,29.30
2017-11-08T05:16:04.984Z,29.10
2017-11-08T05:18:34.726Z,29.30
2017-11-08T05:21:04.128Z,28.90
2017-11-08T05:23:33.328Z,29.00
2017-11-08T05:26:03.013Z,28.90
2017-11-08T05:28:32.595Z,29.10
2017-11-08T05:31:02.210Z,29.20
2017-11-08T05:33:32.838Z,29.00
2017-11-08T05:36:02.879Z,29.10
2017-11-08T05:38:33.712Z,28.80
2017-11-08T05:41:02.637Z,28.70
2017-11-08T05:43:31.691Z,29.10
2017-11-08T05:46:02.334Z,29.00
2017-11-08T05:48:32.175Z,29.00
2017-11-08T05:51:01.627Z,28.60
2017-11-08T05:53:32.185Z,28.70
2017-11-08T05:56:01.668Z,29.00
2017-11-08T05:58:33.683Z,28.90
2017-11-08T06:01:03.353Z,29.10
2017-11-08T06:03:33.480Z,28.60
2017-11-08T06:06:02.794Z,28.90
2017-11-08T06:08:32.574Z,28.50
2017-11-08T06:11:02.397Z,28.60
2017-11-08T06:13:33.328Z,28.10
2017-11-08T06:16:02.211Z,28.20
2017-11-08T06:18:31.837Z,28.30
2017-11-08T06:21:02.449Z,28.70
2017-11-08T06:23:33.082Z,28.50
2017-11-08T06:26:03.126Z,28.40
2017-11-08T06:28:32.606Z,28.70
2017-11-08T06:31:01.712Z,28.30
2017-11-08T06:33:31.127Z,28.30
2017-11-08T06:36:01.151Z,28.10
2017-11-08T06:38:30.684Z,28.40
2017-11-08T06:40:59.831Z,28.90
2017-11-08T06:43:29.158Z,28.20
2017-11-08T06:45:58.453Z,28.10
2017-11-08T06:48:27.551Z,28.20
2017-11-08T06:51:00.213Z,27.60
2017-11-08T06:53:33.233Z,27.60
2017-11-08T06:56:08.057Z,27.60
2017-11-08T06:58:38.565Z,27.30
2017-11-08T07:01:08.981Z,27.80
2017-11-08T07:03:38.394Z,27.50
2017-11-08T07:06:08.330Z,27.20
2017-11-08T07:08:37.537Z,27.20
2017-11-08T07:11:06.774Z,27.00
2017-11-08T07:13:36.474Z,27.50
2017-11-08T07:16:07.891Z,27.30
2017-11-08T07:18:37.202Z,27.30
2017-11-08T07:21:06.505Z,27.80
2017-11-08T07:23:35.740Z,27.40
2017-11-08T07:26:04.975Z,27.10
2017-11-08T07:28:34.510Z,27.60
2017-11-08T07:31:03.641Z,27.30
2017-11-08T07:33:32.787Z,27.00
2017-11-08T07:36:01.836Z,27.20
2017-11-08T07:38:30.874Z,27.60
2017-11-08T07:41:00.175Z,27.90
2017-11-08T07:43:29.467Z,27.80
2017-11-08T07:45:58.755Z,27.50
2017-11-08T07:48:29.069Z,27.80
2017-11-08T07:50:58.153Z,27.80
2017-11-08T07:53:27.407Z,27.30
2017-11-08T07:56:02.230Z,28.10
2017-11-08T07:58:31.461Z,27.70
2017-11-08T08:01:01.646Z,27.80
2017-11-08T08:03:30.743Z,27.90
2017-11-08T08:06:00.320Z,28.20
2017-11-08T08:08:29.660Z,27.60
2017-11-08T08:11:04.591Z,27.80
2017-11-08T08:13:34.054Z,27.80
2017-11-08T08:16:03.402Z,27.60
2017-11-08T08:18:35.123Z,27.60
2017-11-08T08:21:04.692Z,27.60
2017-11-08T08:23:33.996Z,27.40
2017-11-08T08:26:06.852Z,27.40
2017-11-08T08:28:36.143Z,27.70
2017-11-08T08:31:05.373Z,28.20
2017-11-08T08:33:34.449Z,27.10
2017-11-08T08:36:03.516Z,27.30
2017-11-08T08:38:33.471Z,27.00
2017-11-08T08:41:02.634Z,27.00
2017-11-08T08:43:31.701Z,27.00
2017-11-08T08:46:01.000Z,27.50
2017-11-08T08:48:30.260Z,27.40
2017-11-08T08:50:59.493Z,27.50
2017-11-08T08:53:28.580Z,27.20
2017-11-08T08:55:57.739Z,27.40
2017-11-08T08:58:27.054Z,27.40
2017-11-08T09:00:56.342Z,27.40
2017-11-08T09:03:26.656Z,27.60
2017-11-08T09:05:55.750Z,27.50
2017-11-08T09:08:25.043Z,28.00
2017-11-08T09:10:54.402Z,27.90
2017-11-08T09:13:23.903Z,28.30
2017-11-08T09:15:53.105Z,27.70
2017-11-08T09:18:22.444Z,28.20
2017-11-08T09:20:52.690Z,28.20
2017-11-08T09:23:25.325Z,28.20
2017-11-08T09:25:55.682Z,28.50
2017-11-08T09:28:25.078Z,28.60
2017-11-08T09:30:54.268Z,28.70
2017-11-08T09:33:24.325Z,28.80
2017-11-08T09:35:56.257Z,28.90
2017-11-08T09:38:25.509Z,29.00
2017-11-08T09:40:54.700Z,28.70
2017-11-08T09:43:24.360Z,29.00
2017-11-08T09:45:54.041Z,29.20
2017-11-08T09:48:23.383Z,28.90
2017-11-08T09:50:53.045Z,28.80
2017-11-08T09:53:22.128Z,28.50
2017-11-08T09:55:52.148Z,28.30
2017-11-08T09:58:21.106Z,28.30
2017-11-08T10:00:52.025Z,28.50
2017-11-08T10:03:21.484Z,28.20
2017-11-08T10:05:51.698Z,27.90
2017-11-08T10:08:21.150Z,28.80
2017-11-08T10:10:50.567Z,28.30
2017-11-08T10:13:19.750Z,28.00
2017-11-08T10:15:48.912Z,28.60
2017-11-08T10:18:18.182Z,28.10
2017-11-08T10:20:47.474Z,28.50
2017-11-08T10:23:20.467Z,28.50
2017-11-08T10:25:50.663Z,28.40
2017-11-08T10:28:20.511Z,28.60
2017-11-08T10:30:49.821Z,28.60
2017-11-08T10:33:19.032Z,28.80
2017-11-08T10:35:48.461Z,29.30
2017-11-08T10:38:17.681Z,28.70
2017-11-08T10:40:46.912Z,28.90
2017-11-08T10:43:16.019Z,29.50
2017-11-08T10:45:45.477Z,29.80
2017-11-08T10:48:14.644Z,29.90
2017-11-08T10:50:45.223Z,29.80
2017-11-08T10:53:14.426Z,29.70
2017-11-08T10:55:43.902Z,30.00
2017-11-08T10:58:13.063Z,29.80
2017-11-08T11:00:43.349Z,29.70
2017-11-08T11:03:12.438Z,29.90
2017-11-08T11:05:41.714Z,29.80
2017-11-08T11:08:12.006Z,29.80
2017-11-08T11:10:41.722Z,30.00
2017-11-08T11:13:15.942Z,30.00
2017-11-08T11:15:45.434Z,30.60
2017-11-08T11:18:14.803Z,30.00
2017-11-08T11:20:48.485Z,30.10
2017-11-08T11:23:18.052Z,29.80
2017-11-08T11:25:47.652Z,30.00
2017-11-08T11:28:17.000Z,29.80
2017-11-08T11:30:46.406Z,29.80
2017-11-08T11:33:15.646Z,30.00
2017-11-08T11:35:45.339Z,29.70
2017-11-08T11:38:14.189Z,29.60
2017-11-08T11:40:46.510Z,29.70
2017-11-08T11:43:15.990Z,29.50
2017-11-08T11:45:45.102Z,29.50
2017-11-08T11:48:17.687Z,29.10
2017-11-08T11:50:47.376Z,29.40
2017-11-08T11:53:17.226Z,29.50
2017-11-08T11:55:46.248Z,29.30
2017-11-08T11:58:15.489Z,29.70
2017-11-08T12:00:44.605Z,29.80
2017-11-08T12:03:13.836Z,29.50
2017-11-08T12:05:44.045Z,29.30
2017-11-08T12:08:14.005Z,29.40
2017-11-08T12:10:43.447Z,29.80
2017-11-08T12:13:13.288Z,29.80
2017-11-08T12:15:42.673Z,29.80
2017-11-08T12:18:12.085Z,29.40
2017-11-08T12:20:42.237Z,29.60
2017-11-08T12:23:11.547Z,29.60
2017-11-08T12:25:40.598Z,29.40
2017-11-08T12:28:09.908Z,30.10
2017-11-08T12:30:39.439Z,30.00
2017-11-08T12:33:08.761Z,30.30
2017-11-08T12:35:38.291Z,30.00
2017-11-08T12:38:08.056Z,30.20
2017-11-08T12:40:37.292Z,30.00
2017-11-08T12:43:06.549Z,30.00
2017-11-08T12:45:36.906Z,29.50
2017-11-08T12:48:06.185Z,29.40
2017-11-08T12:50:42.412Z,29.60
2017-11-08T12:53:12.172Z,29.70
2017-11-08T12:55:42.404Z,29.70
2017-11-08T12:58:11.888Z,30.00
2017-11-08T13:00:42.079Z,30.30
2017-11-08T13:03:11.823Z,30.30
2017-11-08T13:05:43.066Z,30.30
2017-11-08T13:08:12.683Z,30.00
2017-11-08T13:10:47.926Z,30.20
2017-11-08T13:13:17.309Z,30.10
2017-11-08T13:15:46.598Z,30.00
2017-11-08T13:18:16.750Z,29.90
2017-11-08T13:20:45.975Z,30.10
2017-11-08T13:23:15.319Z,30.10
2017-11-08T13:25:45.631Z,30.10
2017-11-08T13:28:15.086Z,30.10
2017-11-08T13:30:44.277Z,29.70
2017-11-08T13:33:13.873Z,29.60
2017-11-08T13:35:43.284Z,29.70
2017-11-08T13:38:12.573Z,29.60
2017-11-08T13:40:41.838Z,30.10
2017-11-08T13:43:10.934Z,29.60
2017-11-08T13:45:41.075Z,30.00
2017-11-08T13:48:10.270Z,30.20
2017-11-08T13:50:40.524Z,30.90
2017-11-08T13:53:09.946Z,31.00
2017-11-08T13:55:39.335Z,31.40
2017-11-08T13:58:08.562Z,31.60
2017-11-08T14:00:38.591Z,31.50
2017-11-08T14:03:08.364Z,32.10
2017-11-08T14:05:37.872Z,31.90
2017-11-08T14:08:07.257Z,32.30
2017-11-08T14:10:36.467Z,31.90
2017-11-08T14:13:07.101Z,31.80
2017-11-08T14:15:36.255Z,32.00
2017-11-08T14:18:06.434Z,31.80
2017-11-08T14:20:35.784Z,32.10
2017-11-08T14:23:04.981Z,32.00
2017-11-08T14:25:34.857Z,32.60
2017-11-08T14:28:04.021Z,32.50
2017-11-08T14:30:34.095Z,32.60
2017-11-08T14:33:03.226Z,31.80
2017-11-08T14:35:33.083Z,31.20
2017-11-08T14:38:02.217Z,31.10
2017-11-08T14:40:32.381Z,30.80
2017-11-08T14:43:01.619Z,30.00
2017-11-08T14:45:30.785Z,30.20
2017-11-08T14:47:59.963Z,30.50
2017-11-08T14:50:29.370Z,30.70
2017-11-08T14:55:51.506Z,30.10
2017-11-08T14:58:20.638Z,29.70
2017-11-08T15:00:50.997Z,30.10
2017-11-08T15:03:20.186Z,30.00
2017-11-08T15:05:49.463Z,30.20
2017-11-08T15:08:18.730Z,30.30
2017-11-08T15:10:48.380Z,30.40
2017-11-08T15:13:17.960Z,31.20
2017-11-08T15:15:47.285Z,31.50
2017-11-08T15:18:19.605Z,31.30
2017-11-08T15:20:48.641Z,31.60
2017-11-08T15:23:22.481Z,32.10
2017-11-08T15:25:51.875Z,32.40
2017-11-08T15:28:21.241Z,32.50
2017-11-08T15:30:50.725Z,32.70
2017-11-08T15:33:20.090Z,32.60
2017-11-08T15:35:49.349Z,32.60
2017-11-08T15:38:18.894Z,33.00
2017-11-08T15:40:48.383Z,32.00
2017-11-08T15:43:19.831Z,32.70
2017-11-08T15:45:49.120Z,32.10
2017-11-08T15:48:20.392Z,31.40
2017-11-08T15:50:49.679Z,31.30
2017-11-08T15:53:19.611Z,30.90
2017-11-08T15:55:49.634Z,31.10
2017-11-08T15:58:19.046Z,31.00
2017-11-08T16:00:48.329Z,30.70
2017-11-08T16:03:17.456Z,30.50
2017-11-08T16:05:46.780Z,30.10
2017-11-08T16:08:19.107Z,30.00
2017-11-08T16:10:48.360Z,29.80
2017-11-08T16:13:18.900Z,29.50
2017-11-08T16:15:48.100Z,29.00
2017-11-08T16:18:17.432Z,28.90
2017-11-08T16:20:46.268Z,28.70
2017-11-08T16:23:15.498Z,29.30
2017-11-08T16:25:45.461Z,28.70
2017-11-08T16:28:15.676Z,28.70
2017-11-08T16:30:45.011Z,28.90
2017-11-08T16:33:14.647Z,29.30
2017-11-08T16:35:46.479Z,29.60
2017-11-08T16:38:16.449Z,29.80
2017-11-08T16:40:45.506Z,30.00
2017-11-08T16:43:14.799Z,29.90
2017-11-08T16:45:44.222Z,29.70
2017-11-08T16:48:13.735Z,29.90
2017-11-08T16:50:42.913Z,29.60
2017-11-08T16:53:12.238Z,30.10
2017-11-08T16:55:41.424Z,29.70
2017-11-08T16:58:10.939Z,29.60
2017-11-08T17:00:40.466Z,29.80
2017-11-08T17:03:09.666Z,29.90
2017-11-08T17:05:38.891Z,29.60
2017-11-08T17:08:08.157Z,29.50
2017-11-08T17:10:38.385Z,29.30
2017-11-08T17:13:07.648Z,29.60
2017-11-08T17:15:37.806Z,30.10
2017-11-08T17:18:07.088Z,30.00
2017-11-08T17:20:36.212Z,30.20
2017-11-08T17:23:05.762Z,29.60
2017-11-08T17:25:35.156Z,29.40
2017-11-08T17:28:04.384Z,30.00
2017-11-08T17:30:33.761Z,29.90
2017-11-08T17:33:03.131Z,29.40
2017-11-08T17:35:32.480Z,29.00
2017-11-08T17:38:01.780Z,29.20
2017-11-08T17:40:30.866Z,29.70
2017-11-08T17:43:00.379Z,28.70
2017-11-08T17:45:29.678Z,28.70
2017-11-08T17:47:59.082Z,28.70
2017-11-08T17:50:28.189Z,28.60
2017-11-08T17:52:58.059Z,29.10
2017-11-08T17:55:28.522Z,29.10
2017-11-08T17:57:57.717Z,29.20
2017-11-08T18:00:28.960Z,29.00
2017-11-08T18:02:58.933Z,29.40
2017-11-08T18:05:28.293Z,29.80
2017-11-08T18:07:57.582Z,29.50
2017-11-08T18:10:27.008Z,30.90
2017-11-08T18:12:56.091Z,31.10
2017-11-08T18:15:25.363Z,32.30
2017-11-08T18:17:54.699Z,34.60
2017-11-08T18:20:24.008Z,39.80
2017-11-08T18:22:53.178Z,43.10
2017-11-08T18:25:22.367Z,43.60
2017-11-08T18:27:51.384Z,42.50
2017-11-08T18:30:20.868Z,40.10
2017-11-08T18:32:50.184Z,42.40
2017-11-08T18:35:19.063Z,44.60
2017-11-08T18:37:48.257Z,45.00
2017-11-08T18:40:17.840Z,47.30
2017-11-08T18:42:46.984Z,48.30
2017-11-08T18:45:16.180Z,52.30
2017-11-08T18:47:45.777Z,52.50
2017-11-08T18:50:15.043Z,50.60
2017-11-08T18:52:44.293Z,50.30
2017-11-08T18:55:14.510Z,50.10
2017-11-08T18:57:44.012Z,49.80
2017-11-08T19:00:13.078Z,51.20
2017-11-08T19:02:42.171Z,50.30
2017-11-08T19:05:11.451Z,48.90
2017-11-08T19:07:40.706Z,48.10
2017-11-08T19:10:10.173Z,52.80
2017-11-08T19:12:40.384Z,55.40
2017-11-08T19:15:10.839Z,53.70
2017-11-08T19:17:40.722Z,53.60
2017-11-08T19:20:10.800Z,55.20
2017-11-08T19:22:39.839Z,53.60
2017-11-08T19:25:09.174Z,56.00
2017-11-08T19:27:38.553Z,52.90
2017-11-08T19:30:07.817Z,52.50
2017-11-08T19:32:37.115Z,54.20
2017-11-08T19:35:06.418Z,53.60
2017-11-08T19:37:35.668Z,54.80
2017-11-08T19:40:05.015Z,54.70
2017-11-08T19:42:34.285Z,55.30
2017-11-08T19:45:03.795Z,55.80
2017-11-08T19:47:32.859Z,56.70
2017-11-08T19:50:02.593Z,59.60
2017-11-08T19:52:31.941Z,57.90
2017-11-08T19:55:01.655Z,61.80
2017-11-08T19:57:30.976Z,61.00
2017-11-08T20:00:00.967Z,62.30
2017-11-08T20:02:30.440Z,62.30
2017-11-08T20:04:59.591Z,59.70
2017-11-08T20:07:28.894Z,63.10
2017-11-08T20:09:58.046Z,63.10
2017-11-08T20:12:27.341Z,64.20
2017-11-08T20:14:56.466Z,63.80
2017-11-08T20:17:25.916Z,62.10
2017-11-08T20:19:56.318Z,62.30
2017-11-08T20:22:25.871Z,62.90
2017-11-08T20:24:55.010Z,62.30
2017-11-08T20:27:26.148Z,61.60
2017-11-08T20:29:56.098Z,61.00
2017-11-08T20:32:25.498Z,60.90
2017-11-08T20:34:55.549Z,60.70
2017-11-08T20:37:24.903Z,61.00
2017-11-08T20:39:55.263Z,59.40
2017-11-08T20:42:24.782Z,59.80
2017-11-08T20:44:53.971Z,60.00
2017-11-08T20:47:23.463Z,61.00
2017-11-08T20:49:52.691Z,60.20
2017-11-08T20:52:21.911Z,58.70
2017-11-08T20:54:51.319Z,59.60
2017-11-08T20:57:20.419Z,59.30
2017-11-08T20:59:49.714Z,59.40
2017-11-08T21:02:19.298Z,58.70
2017-11-08T21:04:48.669Z,56.90
2017-11-08T21:07:17.947Z,56.50
2017-11-08T21:09:47.216Z,55.90
2017-11-08T21:12:16.304Z,56.00
2017-11-08T21:14:46.266Z,55.40
2017-11-08T21:17:15.834Z,55.20
2017-11-08T21:19:45.213Z,54.10
2017-11-08T21:22:16.041Z,53.70
2017-11-08T21:24:45.330Z,56.30
2017-11-08T21:27:14.509Z,57.40
2017-11-08T21:29:43.722Z,60.00
2017-11-08T21:32:12.948Z,60.30
2017-11-08T21:34:42.270Z,61.70
2017-11-08T21:37:11.637Z,64.10
2017-11-08T21:39:40.933Z,65.50
2017-11-08T21:42:10.706Z,63.80
2017-11-08T21:44:40.174Z,65.10
2017-11-08T21:47:09.234Z,68.10
2017-11-08T21:49:38.780Z,67.20
2017-11-08T21:52:08.243Z,67.60
2017-11-08T21:54:37.523Z,68.00
2017-11-08T21:57:07.941Z,68.60
2017-11-08T21:59:37.294Z,69.00
2017-11-08T22:02:06.515Z,70.90
2017-11-08T22:04:36.519Z,70.10
2017-11-08T22:07:06.126Z,70.10
2017-11-08T22:09:35.514Z,71.90
2017-11-08T22:12:04.898Z,72.10
2017-11-08T22:14:34.437Z,72.10
2017-11-08T22:17:04.173Z,73.30
2017-11-08T22:19:33.343Z,74.30
2017-11-08T22:22:03.826Z,74.00
2017-11-08T22:24:40.709Z,72.50
2017-11-08T22:27:09.856Z,72.10
2017-11-08T22:29:38.941Z,74.00
2017-11-08T22:32:08.231Z,73.70
2017-11-08T22:34:41.275Z,74.20
2017-11-08T22:37:10.528Z,74.00
2017-11-08T22:39:39.738Z,72.70
2017-11-08T22:42:09.106Z,73.10
2017-11-08T22:44:38.578Z,73.80
2017-11-08T22:47:07.715Z,75.20
2017-11-08T22:49:36.955Z,73.00
2017-11-08T22:52:06.127Z,74.30
2017-11-08T22:54:35.449Z,74.50
2017-11-08T22:57:05.682Z,74.00
2017-11-08T22:59:34.847Z,74.40
2017-11-08T23:02:04.246Z,75.00
2017-11-08T23:04:33.869Z,75.50
2017-11-08T23:07:03.072Z,73.80
2017-11-08T23:09:32.159Z,74.80
2017-11-08T23:12:01.773Z,74.90
2017-11-08T23:17:08.575Z,75.50
2017-11-08T23:19:37.989Z,75.30
2017-11-08T23:22:08.181Z,73.50
2017-11-08T23:24:42.280Z,73.90
2017-11-08T23:27:12.802Z,73.40
2017-11-08T23:29:43.256Z,73.10
2017-11-08T23:32:12.521Z,72.30
2017-11-08T23:34:46.165Z,73.50
2017-11-08T23:37:16.934Z,72.80
2017-11-08T23:39:47.573Z,71.30
2017-11-08T23:42:20.192Z,70.30
2017-11-08T23:44:55.982Z,70.50
2017-11-08T23:50:03.665Z,71.30
2017-11-08T23:52:35.859Z,71.80
2017-11-08T23:57:43.915Z,70.60
